createdAt,value
2023-01-25T00:01:37.094Z,18.40
2023-01-25T00:04:09.325Z,19.33
2023-01-25T00:06:41.527Z,18.67
2023-01-25T00:09:14.338Z,16.63
2023-01-25T00:11:47.647Z,17.70
2023-01-25T00:14:19.947Z,19.77
2023-01-25T00:16:52.561Z,18.52
2023-01-25T00:19:24.673Z,16.77
2023-01-25T00:21:56.853Z,16.00
2023-01-25T00:24:28.911Z,17.33
2023-01-25T00:27:02.022Z,19.35
2023-01-25T00:29:34.299Z,17.63
2023-01-25T00:32:06.367Z,17.95
2023-01-25T00:34:58.115Z,16.95
2023-01-25T00:37:43.892Z,17.13
2023-01-25T00:40:18.787Z,18.05
2023-01-25T00:42:50.939Z,17.15
2023-01-25T00:45:22.916Z,18.30
2023-01-25T00:47:56.302Z,16.50
2023-01-25T00:50:28.253Z,16.45
2023-01-25T00:53:00.236Z,17.10
2023-01-25T00:55:32.279Z,18.40
2023-01-25T00:58:04.190Z,16.13
2023-01-25T01:00:36.293Z,17.85
2023-01-25T01:03:08.262Z,18.10
2023-01-25T01:05:40.441Z,16.67
2023-01-25T01:08:14.418Z,17.25
2023-01-25T01:10:46.518Z,16.85
2023-01-25T01:13:18.683Z,19.65
2023-01-25T01:15:50.691Z,17.85
2023-01-25T01:18:23.453Z,16.38
2023-01-25T01:20:55.711Z,16.08
2023-01-25T01:23:29.114Z,16.85
2023-01-25T01:26:02.962Z,16.50
2023-01-25T01:28:40.081Z,17.80
2023-01-25T01:31:18.821Z,15.63
2023-01-25T01:33:56.687Z,15.70
2023-01-25T01:36:31.695Z,18.25
2023-01-25T01:39:03.872Z,16.65
2023-01-25T01:41:36.709Z,17.00
2023-01-25T01:44:17.977Z,16.73
2023-01-25T01:46:58.706Z,18.15
2023-01-25T01:49:32.598Z,16.80
2023-01-25T01:52:14.493Z,16.75
2023-01-25T01:55:10.749Z,18.30
2023-01-25T01:57:54.144Z,16.63
2023-01-25T02:00:34.268Z,16.67
2023-01-25T02:03:11.270Z,15.82
2023-01-25T02:06:00.637Z,16.48
2023-01-25T02:08:40.910Z,16.25
2023-01-25T02:11:14.289Z,16.38
2023-01-25T02:13:47.245Z,15.75
2023-01-25T02:16:25.535Z,17.33
2023-01-25T02:19:02.230Z,17.00
2023-01-25T02:21:41.949Z,16.08
2023-01-25T02:24:23.656Z,16.65
2023-01-25T02:27:01.960Z,16.90
2023-01-25T02:29:35.074Z,16.83
2023-01-25T02:32:07.620Z,15.65
2023-01-25T02:34:39.619Z,15.68
2023-01-25T02:37:15.342Z,16.00
2023-01-25T02:39:47.853Z,15.55
2023-01-25T02:42:20.163Z,16.73
2023-01-25T02:44:52.599Z,14.60
2023-01-25T02:47:24.692Z,16.08
2023-01-25T02:49:56.717Z,16.67
2023-01-25T02:52:28.724Z,15.65
2023-01-25T02:55:00.708Z,14.27
2023-01-25T02:57:32.761Z,16.92
2023-01-25T03:00:06.176Z,14.98
2023-01-25T03:02:38.989Z,15.82
2023-01-25T03:05:11.042Z,15.27
2023-01-25T03:07:43.046Z,14.48
2023-01-25T03:10:15.289Z,15.35
2023-01-25T03:12:47.281Z,15.77
2023-01-25T03:15:19.330Z,15.70
2023-01-25T03:17:51.253Z,16.90
2023-01-25T03:20:23.589Z,15.55
2023-01-25T03:22:55.564Z,15.93
2023-01-25T03:25:27.555Z,15.25
2023-01-25T03:27:59.756Z,15.13
2023-01-25T03:30:31.744Z,14.32
2023-01-25T03:33:03.860Z,14.13
2023-01-25T03:35:35.951Z,16.00
2023-01-25T03:38:08.139Z,15.50
2023-01-25T03:40:40.203Z,15.10
2023-01-25T03:43:12.499Z,16.08
2023-01-25T03:45:44.718Z,15.57
2023-01-25T03:48:16.620Z,14.30
2023-01-25T03:50:54.292Z,14.90
2023-01-25T03:53:30.602Z,14.15
2023-01-25T03:56:09.351Z,15.02
2023-01-25T03:58:42.446Z,14.63
2023-01-25T04:01:14.549Z,14.40
2023-01-25T04:03:46.840Z,14.88
2023-01-25T04:06:18.783Z,14.32
2023-01-25T04:08:50.861Z,15.13
2023-01-25T04:11:25.051Z,14.73
2023-01-25T04:13:57.009Z,14.20
2023-01-25T04:16:30.585Z,13.35
2023-01-25T04:19:02.729Z,13.45
2023-01-25T04:21:34.709Z,15.50
2023-01-25T04:24:07.046Z,15.23
2023-01-25T04:26:39.303Z,14.77
2023-01-25T04:29:11.322Z,15.30
2023-01-25T04:31:43.939Z,13.65
2023-01-25T04:34:16.012Z,13.40
2023-01-25T04:36:48.026Z,14.57
2023-01-25T04:39:20.627Z,16.00
2023-01-25T04:41:52.680Z,13.25
2023-01-25T04:44:24.608Z,13.25
2023-01-25T04:46:56.590Z,13.77
2023-01-25T04:49:28.683Z,14.13
2023-01-25T04:52:00.931Z,13.40
2023-01-25T04:54:32.945Z,14.50
2023-01-25T04:57:04.944Z,13.43
2023-01-25T04:59:36.912Z,14.00
2023-01-25T05:02:08.989Z,12.90
2023-01-25T05:04:41.029Z,13.13
2023-01-25T05:07:13.003Z,12.85
2023-01-25T05:09:45.040Z,13.35
2023-01-25T05:12:17.233Z,12.63
2023-01-25T05:14:49.249Z,13.63
2023-01-25T05:17:21.700Z,14.55
2023-01-25T05:19:53.758Z,13.05
2023-01-25T05:22:25.818Z,12.80
2023-01-25T05:24:59.139Z,12.70
2023-01-25T05:27:34.563Z,12.75
2023-01-25T05:30:07.599Z,12.68
2023-01-25T05:32:40.229Z,13.07
2023-01-25T05:35:12.296Z,12.40
2023-01-25T05:37:44.533Z,11.55
2023-01-25T05:40:16.688Z,12.35
2023-01-25T05:42:54.919Z,12.70
2023-01-25T05:45:27.860Z,11.73
2023-01-25T05:48:00.998Z,12.70
2023-01-25T05:50:33.148Z,13.05
2023-01-25T05:53:05.255Z,12.35
2023-01-25T05:55:37.214Z,12.90
2023-01-25T05:58:09.229Z,13.18
2023-01-25T06:00:41.187Z,12.05
2023-01-25T06:03:13.315Z,12.38
2023-01-25T06:05:45.439Z,12.68
2023-01-25T06:08:17.403Z,12.05
2023-01-25T06:10:49.524Z,11.88
2023-01-25T06:13:22.406Z,12.00
2023-01-25T06:15:55.716Z,13.15
2023-01-25T06:18:31.414Z,13.02
2023-01-25T06:21:05.607Z,12.02
2023-01-25T06:23:37.824Z,12.20
2023-01-25T06:26:13.198Z,13.02
2023-01-25T06:28:47.162Z,11.40
2023-01-25T06:31:19.763Z,11.93
2023-01-25T06:33:52.798Z,13.32
2023-01-25T06:36:24.938Z,11.13
2023-01-25T06:38:56.936Z,11.95
2023-01-25T06:41:29.282Z,12.75
2023-01-25T06:44:01.511Z,11.98
2023-01-25T06:46:33.807Z,12.05
2023-01-25T06:49:06.116Z,12.07
2023-01-25T06:51:38.040Z,12.02
2023-01-25T06:54:10.054Z,11.73
2023-01-25T06:56:42.123Z,12.65
2023-01-25T06:59:16.115Z,11.63
2023-01-25T07:01:48.201Z,12.15
2023-01-25T07:04:20.937Z,10.20
2023-01-25T07:06:52.972Z,11.65
2023-01-25T07:09:25.056Z,11.15
2023-01-25T07:11:57.030Z,12.00
2023-01-25T07:14:29.181Z,11.65
2023-01-25T07:17:03.718Z,11.68
2023-01-25T07:19:36.312Z,11.75
2023-01-25T07:22:08.353Z,11.40
2023-01-25T07:24:40.500Z,11.68
2023-01-25T07:27:12.740Z,12.63
2023-01-25T07:29:45.021Z,11.20
2023-01-25T07:32:17.152Z,11.35
2023-01-25T07:34:49.492Z,13.25
2023-01-25T07:37:21.673Z,12.52
2023-01-25T07:39:54.235Z,10.93
2023-01-25T07:42:30.148Z,11.73
2023-01-25T07:45:02.624Z,12.15
2023-01-25T07:47:37.153Z,11.68
2023-01-25T07:50:11.090Z,10.30
2023-01-25T07:52:43.648Z,11.57
2023-01-25T07:55:16.458Z,12.23
2023-01-25T07:57:49.301Z,10.88
2023-01-25T08:00:25.332Z,11.98
2023-01-25T08:02:58.038Z,10.20
2023-01-25T08:05:30.337Z,11.25
2023-01-25T08:08:02.688Z,10.48
2023-01-25T08:10:35.164Z,11.30
2023-01-25T08:13:10.762Z,11.13
2023-01-25T08:15:42.881Z,10.85
2023-01-25T08:18:15.180Z,11.10
2023-01-25T08:20:48.284Z,10.13
2023-01-25T08:23:20.621Z,10.90
2023-01-25T08:25:53.219Z,10.40
2023-01-25T08:28:25.396Z,10.43
2023-01-25T08:31:19.282Z,10.82
2023-01-25T08:33:55.214Z,11.07
2023-01-25T08:36:28.378Z,12.18
2023-01-25T08:39:03.179Z,10.68
2023-01-25T08:41:38.934Z,11.85
2023-01-25T08:44:11.380Z,9.85
2023-01-25T08:46:44.016Z,11.23
2023-01-25T08:49:17.045Z,12.35
2023-01-25T08:51:50.396Z,9.50
2023-01-25T08:54:24.525Z,11.68
2023-01-25T08:56:56.772Z,11.30
2023-01-25T08:59:29.328Z,10.02
2023-01-25T09:02:01.450Z,10.38
2023-01-25T09:04:33.610Z,11.73
2023-01-25T09:07:06.108Z,10.80
2023-01-25T09:09:38.878Z,11.50
2023-01-25T09:12:11.579Z,12.60
2023-01-25T09:14:43.698Z,10.70
2023-01-25T09:17:15.649Z,10.35
2023-01-25T09:25:28.054Z,10.50
2023-01-25T09:28:00.193Z,10.60
2023-01-25T09:30:45.011Z,11.73
2023-01-25T09:33:33.332Z,10.55
2023-01-25T09:36:08.063Z,12.32
2023-01-25T09:38:40.589Z,11.57
2023-01-25T09:41:41.926Z,11.55
2023-01-25T09:44:59.207Z,11.18
2023-01-25T09:47:55.544Z,11.48
2023-01-25T09:50:59.897Z,9.90
2023-01-25T09:53:54.330Z,11.85
2023-01-25T09:56:32.946Z,11.63
2023-01-25T09:59:17.213Z,10.95
2023-01-25T10:02:10.344Z,10.70
2023-01-25T10:05:11.212Z,10.95
2023-01-25T10:08:10.571Z,11.65
2023-01-25T10:11:16.816Z,11.25
2023-01-25T10:13:57.113Z,12.05
2023-01-25T10:16:55.564Z,12.07
2023-01-25T10:20:09.041Z,11.80
2023-01-25T10:23:55.528Z,12.95
2023-01-25T10:26:49.357Z,11.75
2023-01-25T10:29:31.207Z,12.40
2023-01-25T10:32:35.848Z,11.73
2023-01-25T10:35:34.341Z,11.57
2023-01-25T10:38:34.301Z,11.80
2023-01-25T10:41:53.117Z,12.05
2023-01-25T10:44:30.685Z,12.82
2023-01-25T10:47:34.171Z,12.15
2023-01-25T10:50:08.500Z,13.25
2023-01-25T10:52:56.447Z,13.48
2023-01-25T10:55:29.275Z,12.75
2023-01-25T10:58:01.433Z,11.40
2023-01-25T11:00:41.099Z,13.73
2023-01-25T11:03:21.599Z,12.65
2023-01-25T11:05:55.535Z,11.80
2023-01-25T11:08:31.232Z,11.68
2023-01-25T11:11:35.207Z,12.50
2023-01-25T11:14:18.549Z,13.02
2023-01-25T11:16:56.377Z,12.40
2023-01-25T11:19:39.304Z,11.70
2023-01-25T11:22:26.538Z,11.93
2023-01-25T11:25:26.678Z,12.20
2023-01-25T11:28:20.623Z,13.32
2023-01-25T11:30:54.762Z,13.00
2023-01-25T11:33:27.497Z,11.50
2023-01-25T11:36:16.557Z,12.52
2023-01-25T11:39:46.755Z,12.05
2023-01-25T11:43:07.341Z,11.50
2023-01-25T11:46:02.829Z,12.50
2023-01-25T11:49:06.090Z,12.13
2023-01-25T11:52:31.703Z,13.10
2023-01-25T11:55:31.870Z,11.63
2023-01-25T11:58:48.708Z,12.25
2023-01-25T12:02:22.456Z,12.00
2023-01-25T12:05:34.122Z,13.35
2023-01-25T12:08:51.845Z,11.48
2023-01-25T12:11:56.283Z,12.18
2023-01-25T12:15:07.542Z,12.20
2023-01-25T12:18:28.785Z,12.60
2023-01-25T12:21:37.412Z,11.40
2023-01-25T12:24:47.686Z,11.90
2023-01-25T12:27:47.788Z,12.38
2023-01-25T12:30:45.751Z,13.05
2023-01-25T12:33:34.053Z,13.77
2023-01-25T12:36:21.699Z,13.45
2023-01-25T12:39:04.559Z,12.75
2023-01-25T12:42:09.938Z,13.13
2023-01-25T12:45:00.871Z,12.20
2023-01-25T12:47:54.566Z,11.60
2023-01-25T12:50:59.965Z,12.95
2023-01-25T12:53:47.266Z,12.88
2023-01-25T12:56:26.380Z,13.10
2023-01-25T12:59:44.292Z,13.27
2023-01-25T13:02:28.356Z,12.35
2023-01-25T13:05:38.017Z,12.40
2023-01-25T13:08:34.638Z,13.10
2023-01-25T13:11:28.270Z,13.35
2023-01-25T13:14:19.985Z,13.02
2023-01-25T13:17:24.565Z,13.15
2023-01-25T13:20:01.982Z,13.25
2023-01-25T13:22:58.951Z,14.68
2023-01-25T13:25:31.701Z,12.63
2023-01-25T13:28:43.678Z,14.30
2023-01-25T13:31:52.051Z,15.00
2023-01-25T13:34:42.161Z,14.50
2023-01-25T13:37:29.926Z,14.50
2023-01-25T13:40:25.630Z,14.68
2023-01-25T13:43:13.150Z,14.95
2023-01-25T13:45:52.694Z,14.48
2023-01-25T13:48:28.706Z,14.88
2023-01-25T13:51:08.639Z,14.70
2023-01-25T13:53:54.412Z,15.20
2023-01-25T13:56:33.963Z,15.05
2023-01-25T13:59:06.604Z,15.35
2023-01-25T14:01:55.266Z,15.23
2023-01-25T14:04:33.518Z,13.20
2023-01-25T14:07:10.421Z,14.70
2023-01-25T14:09:49.372Z,15.60
2023-01-25T14:12:34.156Z,14.32
2023-01-25T14:15:20.221Z,15.20
2023-01-25T14:18:08.561Z,16.15
2023-01-25T14:20:50.977Z,15.10
2023-01-25T14:23:43.680Z,14.55
2023-01-25T14:26:24.416Z,16.17
2023-01-25T14:29:01.473Z,14.85
2023-01-25T14:31:37.932Z,16.13
2023-01-25T14:34:19.542Z,17.05
2023-01-25T14:37:21.369Z,24.13
2023-01-25T14:39:54.555Z,17.65
2023-01-25T14:42:27.249Z,16.52
2023-01-25T14:45:00.209Z,18.90
2023-01-25T14:47:35.978Z,19.40
2023-01-25T14:50:38.556Z,20.15
2023-01-25T14:53:14.957Z,17.38
2023-01-25T14:55:52.538Z,17.60
2023-01-25T14:58:26.153Z,16.70
2023-01-25T15:01:03.214Z,17.63
2023-01-25T15:03:45.035Z,17.13
2023-01-25T15:06:17.675Z,16.65
2023-01-25T15:08:49.920Z,16.85
2023-01-25T15:11:46.178Z,16.15
2023-01-25T15:14:29.957Z,16.27
2023-01-25T15:17:02.719Z,16.95
2023-01-25T15:19:35.409Z,15.43
2023-01-25T15:22:08.979Z,16.98
2023-01-25T15:24:50.362Z,16.13
2023-01-25T15:27:30.716Z,14.75
2023-01-25T15:30:06.168Z,17.25
2023-01-25T15:32:46.647Z,18.63
2023-01-25T15:35:21.493Z,17.35
2023-01-25T15:37:55.230Z,18.48
2023-01-25T15:40:28.342Z,17.80
2023-01-25T15:43:01.779Z,18.02
2023-01-25T15:45:34.246Z,16.92
2023-01-25T15:48:10.971Z,17.80
2023-01-25T15:50:45.905Z,18.35
2023-01-25T15:53:20.291Z,17.98
2023-01-25T15:56:07.291Z,18.63
2023-01-25T15:58:58.551Z,17.40
2023-01-25T16:01:33.198Z,17.13
2023-01-25T16:04:06.675Z,17.90
2023-01-25T16:06:42.078Z,19.10
2023-01-25T16:09:26.784Z,18.17
2023-01-25T16:12:02.888Z,18.73
2023-01-25T16:14:37.293Z,18.55
2023-01-25T16:17:22.492Z,20.70
2023-01-25T16:19:56.684Z,19.02
2023-01-25T16:22:30.135Z,18.88
2023-01-25T16:25:04.601Z,19.23
2023-01-25T16:27:42.070Z,19.05
2023-01-25T16:30:27.572Z,18.42
2023-01-25T16:33:02.280Z,19.02
2023-01-25T16:35:34.961Z,19.58
2023-01-25T16:38:10.906Z,18.50
2023-01-25T16:40:43.524Z,19.33
2023-01-25T16:43:15.757Z,18.52
2023-01-25T16:45:48.033Z,19.55
2023-01-25T16:48:21.327Z,19.65
2023-01-25T16:50:58.858Z,21.15
2023-01-25T16:53:31.208Z,21.27
2023-01-25T16:56:04.169Z,19.00
2023-01-25T16:58:38.149Z,19.52
2023-01-25T17:01:15.357Z,20.92
2023-01-25T17:03:49.435Z,19.77
2023-01-25T17:06:32.161Z,18.58
2023-01-25T17:09:21.895Z,20.25
2023-01-25T17:11:56.255Z,18.23
2023-01-25T17:14:28.776Z,18.30
2023-01-25T17:17:01.937Z,20.17
2023-01-25T17:19:37.075Z,19.73
2023-01-25T17:22:09.477Z,18.02
2023-01-25T17:24:42.139Z,18.00
2023-01-25T17:27:16.128Z,18.17
2023-01-25T17:29:48.703Z,21.75
2023-01-25T17:32:21.109Z,18.77
2023-01-25T17:34:54.114Z,18.90
2023-01-25T17:37:30.289Z,17.80
2023-01-25T17:40:03.298Z,20.17
2023-01-25T17:42:36.652Z,18.55
2023-01-25T17:45:10.349Z,18.00
2023-01-25T17:47:43.733Z,18.98
2023-01-25T17:50:17.653Z,19.10
2023-01-25T17:52:54.023Z,17.63
2023-01-25T17:55:26.637Z,19.75
2023-01-25T17:58:00.266Z,19.13
2023-01-25T18:00:33.690Z,20.63
2023-01-25T18:03:06.139Z,19.83
2023-01-25T18:05:39.510Z,21.20
2023-01-25T18:08:12.638Z,19.55
2023-01-25T18:10:45.744Z,20.58
2023-01-25T18:13:19.172Z,18.48
2023-01-25T18:15:55.759Z,18.88
2023-01-25T18:18:28.678Z,18.83
2023-01-25T18:21:10.148Z,18.17
2023-01-25T18:23:47.702Z,18.65
2023-01-25T18:26:28.429Z,20.15
2023-01-25T18:29:46.480Z,18.85
2023-01-25T18:32:38.605Z,19.05
2023-01-25T18:35:11.985Z,20.30
2023-01-25T18:37:46.729Z,19.17
2023-01-25T18:40:20.762Z,19.27
2023-01-25T18:42:54.087Z,19.17
2023-01-25T18:45:27.328Z,17.88
2023-01-25T18:48:02.209Z,19.10
2023-01-25T18:50:41.159Z,19.50
2023-01-25T18:53:14.501Z,17.90
2023-01-25T18:56:02.681Z,19.25
2023-01-25T18:58:46.062Z,18.73
2023-01-25T19:01:21.822Z,17.85
2023-01-25T19:03:55.917Z,18.05
2023-01-25T19:06:30.045Z,20.85
2023-01-25T19:09:02.638Z,20.85
2023-01-25T19:11:36.802Z,20.38
2023-01-25T19:14:11.049Z,19.30
2023-01-25T19:16:44.262Z,18.80
2023-01-25T19:19:18.042Z,17.80
2023-01-25T19:21:53.152Z,17.35
2023-01-25T19:24:27.371Z,19.13
2023-01-25T19:27:00.734Z,18.90
2023-01-25T19:29:34.893Z,18.50
2023-01-25T19:32:10.994Z,20.00
2023-01-25T19:34:45.880Z,18.60
2023-01-25T19:37:19.727Z,19.77
2023-01-25T19:39:53.672Z,19.48
2023-01-25T19:42:26.424Z,21.50
2023-01-25T19:45:02.213Z,19.80
2023-01-25T19:47:35.500Z,18.17
2023-01-25T19:50:11.008Z,19.88
2023-01-25T19:52:44.841Z,20.73
2023-01-25T19:55:17.794Z,18.40
2023-01-25T19:57:51.113Z,18.70
2023-01-25T20:00:26.612Z,19.90
2023-01-25T20:03:14.886Z,20.42
2023-01-25T20:05:58.568Z,20.73
2023-01-25T20:08:32.967Z,19.27
2023-01-25T20:11:15.716Z,18.88
2023-01-25T20:14:00.251Z,18.75
2023-01-25T20:16:36.124Z,21.90
2023-01-25T20:19:12.360Z,20.05
2023-01-25T20:21:46.304Z,20.77
2023-01-25T20:24:19.589Z,18.70
2023-01-25T20:26:53.111Z,18.92
2023-01-25T20:29:29.563Z,21.02
2023-01-25T20:32:04.340Z,20.88
2023-01-25T20:34:39.000Z,21.20
2023-01-25T20:37:12.574Z,19.75
2023-01-25T20:39:46.725Z,21.38
2023-01-25T20:42:20.905Z,22.67
2023-01-25T20:44:54.157Z,19.60
2023-01-25T20:47:27.150Z,22.20
2023-01-25T20:50:00.516Z,20.08
2023-01-25T20:52:33.838Z,20.77
2023-01-25T20:55:07.179Z,19.77
2023-01-25T20:57:41.009Z,20.85
2023-01-25T21:00:15.814Z,20.63
2023-01-25T21:02:49.621Z,21.35
2023-01-25T21:05:23.581Z,19.02
2023-01-25T21:07:57.232Z,19.67
2023-01-25T21:10:30.459Z,22.75
2023-01-25T21:13:03.608Z,20.13
2023-01-25T21:15:39.225Z,21.35
2023-01-25T21:18:13.070Z,20.27
2023-01-25T21:20:46.480Z,19.83
2023-01-25T21:23:20.057Z,20.65
2023-01-25T21:25:53.317Z,20.92
2023-01-25T21:28:27.009Z,20.35
2023-01-25T21:31:13.565Z,22.45
2023-01-25T21:33:57.064Z,21.33
2023-01-25T21:36:30.763Z,20.05
2023-01-25T21:39:04.754Z,20.95
2023-01-25T21:41:39.012Z,21.10
2023-01-25T21:44:29.999Z,20.13
2023-01-25T21:47:30.579Z,20.75
2023-01-25T21:50:30.193Z,20.27
2023-01-25T21:53:22.934Z,20.92
2023-01-25T21:55:57.244Z,19.92
2023-01-25T21:58:29.599Z,21.40
2023-01-25T22:01:02.216Z,20.10
2023-01-25T22:03:36.440Z,21.13
2023-01-25T22:06:09.249Z,20.70
2023-01-25T22:08:41.642Z,22.42
2023-01-25T22:11:17.603Z,21.15
2023-01-25T22:13:49.740Z,22.20
2023-01-25T22:16:22.445Z,22.83
2023-01-25T22:18:55.318Z,22.27
2023-01-25T22:21:33.843Z,23.95
2023-01-25T22:24:07.218Z,24.92
2023-01-25T22:26:50.729Z,21.52
2023-01-25T22:29:42.612Z,20.42
2023-01-25T22:32:14.964Z,23.58
2023-01-25T22:34:47.070Z,22.98
2023-01-25T22:37:19.124Z,22.20
2023-01-25T22:39:54.535Z,24.05
2023-01-25T22:42:31.277Z,22.02
2023-01-25T22:45:03.616Z,21.52
2023-01-25T22:47:36.837Z,23.02
2023-01-25T22:50:09.943Z,21.85
2023-01-25T22:52:42.317Z,21.75
2023-01-25T22:55:14.566Z,19.98
2023-01-25T22:57:46.763Z,23.60
2023-01-25T23:00:19.690Z,21.55
2023-01-25T23:02:52.453Z,19.60
2023-01-25T23:05:24.575Z,19.20
2023-01-25T23:07:59.572Z,22.10
2023-01-25T23:10:31.696Z,22.52
2023-01-25T23:13:03.799Z,23.60
2023-01-25T23:15:35.886Z,22.83
2023-01-25T23:18:28.516Z,22.42
2023-01-25T23:21:22.394Z,21.30
2023-01-25T23:23:58.266Z,19.83
2023-01-25T23:26:39.083Z,21.77
2023-01-25T23:29:16.993Z,18.70
2023-01-25T23:31:49.445Z,19.00
2023-01-25T23:34:21.607Z,18.98
2023-01-25T23:36:53.622Z,20.95
2023-01-25T23:39:26.879Z,20.80
2023-01-25T23:41:59.084Z,21.13
2023-01-25T23:44:31.375Z,22.05
2023-01-25T23:47:03.473Z,21.10
2023-01-25T23:49:35.572Z,19.08
2023-01-25T23:52:07.662Z,21.02
2023-01-25T23:54:39.662Z,21.08
2023-01-25T23:57:12.755Z,20.48
2023-01-25T23:59:44.865Z,21.08
